sensor_id;sensor_type;location;lat;lon;timestamp;pressure;altitude;pressure_sealevel;temperature;humidity
9277;BME280;4676;42.678;23.244;2023-07-13T00:01:30;94389.50;;;21.31;100.00
9277;BME280;4676;42.678;23.244;2023-07-13T00:03:57;94380.22;;;21.39;100.00
9277;BME280;4676;42.678;23.244;2023-07-13T00:06:24;94371.81;;;21.26;100.00
9277;BME280;4676;42.678;23.244;2023-07-13T00:08:50;94380.03;;;21.31;100.00
9277;BME280;4676;42.678;23.244;2023-07-13T00:11:19;94376.63;;;21.31;100.00
9277;BME280;4676;42.678;23.244;2023-07-13T00:13:46;94373.31;;;21.29;100.00
9277;BME280;4676;42.678;23.244;2023-07-13T00:16:13;94367.22;;;21.30;100.00
9277;BME280;4676;42.678;23.244;2023-07-13T00:18:40;94364.91;;;21.27;100.00
9277;BME280;4676;42.678;23.244;2023-07-13T00:21:07;94365.72;;;21.27;100.00
9277;BME280;4676;42.678;23.244;2023-07-13T00:23:36;94359.25;;;21.22;100.00
9277;BME280;4676;42.678;23.244;2023-07-13T00:26:04;94362.78;;;21.21;100.00
9277;BME280;4676;42.678;23.244;2023-07-13T00:28:34;94353.31;;;21.21;100.00
9277;BME280;4676;42.678;23.244;2023-07-13T00:31:01;94355.50;;;21.15;100.00
9277;BME280;4676;42.678;23.244;2023-07-13T00:33:28;94348.00;;;21.01;100.00
9277;BME280;4676;42.678;23.244;2023-07-13T00:35:56;94348.81;;;21.01;100.00
9277;BME280;4676;42.678;23.244;2023-07-13T00:38:23;94363.00;;;21.07;100.00
9277;BME280;4676;42.678;23.244;2023-07-13T00:40:49;94352.78;;;21.05;100.00
9277;BME280;4676;42.678;23.244;2023-07-13T00:43:18;94352.44;;;20.99;100.00
9277;BME280;4676;42.678;23.244;2023-07-13T00:46:13;94360.91;;;20.89;100.00
9277;BME280;4676;42.678;23.244;2023-07-13T00:48:40;94371.31;;;20.88;100.00
9277;BME280;4676;42.678;23.244;2023-07-13T00:51:10;94361.00;;;20.99;100.00
9277;BME280;4676;42.678;23.244;2023-07-13T00:53:38;94341.06;;;20.90;100.00
9277;BME280;4676;42.678;23.244;2023-07-13T00:56:06;94351.63;;;20.87;100.00
9277;BME280;4676;42.678;23.244;2023-07-13T00:58:33;94352.69;;;20.84;100.00
9277;BME280;4676;42.678;23.244;2023-07-13T01:01:00;94353.03;;;20.91;100.00
9277;BME280;4676;42.678;23.244;2023-07-13T01:03:28;94352.00;;;20.82;100.00
9277;BME280;4676;42.678;23.244;2023-07-13T01:05:55;94346.47;;;20.87;100.00
9277;BME280;4676;42.678;23.244;2023-07-13T01:08:22;94346.00;;;20.82;100.00
9277;BME280;4676;42.678;23.244;2023-07-13T01:10:53;94349.75;;;20.89;100.00
9277;BME280;4676;42.678;23.244;2023-07-13T01:13:20;94356.19;;;20.83;100.00
9277;BME280;4676;42.678;23.244;2023-07-13T01:15:49;94355.97;;;20.75;100.00
9277;BME280;4676;42.678;23.244;2023-07-13T01:18:19;94343.88;;;20.65;100.00
9277;BME280;4676;42.678;23.244;2023-07-13T01:20:51;94340.16;;;20.69;100.00
9277;BME280;4676;42.678;23.244;2023-07-13T01:23:19;94359.00;;;20.80;100.00
9277;BME280;4676;42.678;23.244;2023-07-13T01:25:45;94342.50;;;20.72;100.00
9277;BME280;4676;42.678;23.244;2023-07-13T01:28:12;94347.88;;;20.69;100.00
9277;BME280;4676;42.678;23.244;2023-07-13T01:30:40;94344.00;;;20.63;100.00
9277;BME280;4676;42.678;23.244;2023-07-13T01:33:07;94344.56;;;20.56;100.00
9277;BME280;4676;42.678;23.244;2023-07-13T01:35:35;94344.19;;;20.49;100.00
9277;BME280;4676;42.678;23.244;2023-07-13T01:38:04;94340.59;;;20.63;100.00
9277;BME280;4676;42.678;23.244;2023-07-13T01:40:31;94344.78;;;20.53;100.00
9277;BME280;4676;42.678;23.244;2023-07-13T01:42:58;94334.41;;;20.54;100.00
9277;BME280;4676;42.678;23.244;2023-07-13T01:45:25;94336.00;;;20.55;100.00
9277;BME280;4676;42.678;23.244;2023-07-13T01:47:52;94331.09;;;20.52;100.00
9277;BME280;4676;42.678;23.244;2023-07-13T01:50:18;94335.44;;;20.40;100.00
9277;BME280;4676;42.678;23.244;2023-07-13T01:52:45;94329.44;;;20.40;100.00
9277;BME280;4676;42.678;23.244;2023-07-13T01:55:13;94336.69;;;20.35;100.00
9277;BME280;4676;42.678;23.244;2023-07-13T01:57:40;94326.16;;;20.38;100.00
9277;BME280;4676;42.678;23.244;2023-07-13T02:00:09;94334.22;;;20.33;100.00
9277;BME280;4676;42.678;23.244;2023-07-13T02:02:36;94341.13;;;20.33;100.00
9277;BME280;4676;42.678;23.244;2023-07-13T02:05:03;94351.47;;;20.20;100.00
9277;BME280;4676;42.678;23.244;2023-07-13T02:07:30;94349.72;;;20.21;100.00
9277;BME280;4676;42.678;23.244;2023-07-13T02:09:57;94350.03;;;20.16;100.00
9277;BME280;4676;42.678;23.244;2023-07-13T02:12:25;94357.75;;;20.05;100.00
9277;BME280;4676;42.678;23.244;2023-07-13T02:14:52;94357.44;;;20.21;100.00
9277;BME280;4676;42.678;23.244;2023-07-13T02:17:18;94355.47;;;20.24;100.00
9277;BME280;4676;42.678;23.244;2023-07-13T02:19:45;94340.06;;;20.01;100.00
9277;BME280;4676;42.678;23.244;2023-07-13T02:22:12;94355.91;;;20.18;100.00
9277;BME280;4676;42.678;23.244;2023-07-13T02:24:39;94348.84;;;20.09;100.00
9277;BME280;4676;42.678;23.244;2023-07-13T02:27:06;94360.00;;;20.21;100.00
9277;BME280;4676;42.678;23.244;2023-07-13T02:29:34;94358.72;;;20.15;100.00
9277;BME280;4676;42.678;23.244;2023-07-13T02:32:01;94362.31;;;20.13;100.00
9277;BME280;4676;42.678;23.244;2023-07-13T02:34:28;94357.88;;;20.15;100.00
9277;BME280;4676;42.678;23.244;2023-07-13T02:36:54;94361.72;;;20.09;100.00
9277;BME280;4676;42.678;23.244;2023-07-13T02:39:21;94355.03;;;20.07;100.00
9277;BME280;4676;42.678;23.244;2023-07-13T02:41:48;94352.69;;;20.04;100.00
9277;BME280;4676;42.678;23.244;2023-07-13T02:44:15;94354.34;;;20.05;100.00
9277;BME280;4676;42.678;23.244;2023-07-13T02:46:43;94356.84;;;20.17;100.00
9277;BME280;4676;42.678;23.244;2023-07-13T02:49:10;94356.09;;;20.04;100.00
9277;BME280;4676;42.678;23.244;2023-07-13T02:51:37;94349.75;;;19.97;100.00
9277;BME280;4676;42.678;23.244;2023-07-13T02:54:04;94353.84;;;20.00;100.00
9277;BME280;4676;42.678;23.244;2023-07-13T02:56:34;94346.91;;;19.89;100.00
9277;BME280;4676;42.678;23.244;2023-07-13T02:59:00;94359.47;;;19.81;100.00
9277;BME280;4676;42.678;23.244;2023-07-13T03:01:27;94353.31;;;19.83;100.00
9277;BME280;4676;42.678;23.244;2023-07-13T03:03:55;94356.59;;;19.85;100.00
9277;BME280;4676;42.678;23.244;2023-07-13T03:06:22;94357.88;;;19.80;100.00
9277;BME280;4676;42.678;23.244;2023-07-13T03:08:50;94360.97;;;19.72;100.00
9277;BME280;4676;42.678;23.244;2023-07-13T03:11:18;94374.22;;;19.79;100.00
9277;BME280;4676;42.678;23.244;2023-07-13T03:13:46;94365.13;;;19.86;100.00
9277;BME280;4676;42.678;23.244;2023-07-13T03:16:15;94370.59;;;19.81;100.00
9277;BME280;4676;42.678;23.244;2023-07-13T03:18:42;94364.75;;;19.79;100.00
9277;BME280;4676;42.678;23.244;2023-07-13T03:21:10;94366.72;;;19.76;100.00
9277;BME280;4676;42.678;23.244;2023-07-13T03:23:37;94360.53;;;19.78;100.00
9277;BME280;4676;42.678;23.244;2023-07-13T03:26:06;94362.50;;;19.75;100.00
9277;BME280;4676;42.678;23.244;2023-07-13T03:28:33;94367.78;;;19.73;100.00
9277;BME280;4676;42.678;23.244;2023-07-13T03:31:02;94368.78;;;19.71;100.00
9277;BME280;4676;42.678;23.244;2023-07-13T03:33:29;94364.38;;;19.73;100.00
9277;BME280;4676;42.678;23.244;2023-07-13T03:35:56;94371.59;;;19.91;100.00
9277;BME280;4676;42.678;23.244;2023-07-13T03:38:24;94374.56;;;19.98;100.00
9277;BME280;4676;42.678;23.244;2023-07-13T03:40:51;94375.25;;;20.00;100.00
9277;BME280;4676;42.678;23.244;2023-07-13T03:43:18;94370.44;;;19.95;100.00
9277;BME280;4676;42.678;23.244;2023-07-13T03:45:45;94371.16;;;19.98;100.00
9277;BME280;4676;42.678;23.244;2023-07-13T03:50:11;94373.59;;;19.99;100.00
9277;BME280;4676;42.678;23.244;2023-07-13T03:52:37;94370.81;;;20.02;100.00
9277;BME280;4676;42.678;23.244;2023-07-13T03:55:05;94366.06;;;20.09;100.00
9277;BME280;4676;42.678;23.244;2023-07-13T03:57:32;94370.03;;;20.13;100.00
9277;BME280;4676;42.678;23.244;2023-07-13T04:00:00;94372.34;;;20.28;100.00
9277;BME280;4676;42.678;23.244;2023-07-13T04:02:26;94368.13;;;20.27;100.00
9277;BME280;4676;42.678;23.244;2023-07-13T04:04:53;94363.84;;;20.39;100.00
9277;BME280;4676;42.678;23.244;2023-07-13T04:07:21;94363.88;;;20.50;100.00
9277;BME280;4676;42.678;23.244;2023-07-13T04:09:48;94368.31;;;20.59;100.00
9277;BME280;4676;42.678;23.244;2023-07-13T04:12:14;94360.38;;;20.73;100.00
9277;BME280;4676;42.678;23.244;2023-07-13T04:14:41;94357.72;;;20.75;100.00
9277;BME280;4676;42.678;23.244;2023-07-13T04:17:08;94354.34;;;20.97;100.00
9277;BME280;4676;42.678;23.244;2023-07-13T04:19:34;94366.63;;;20.93;100.00
9277;BME280;4676;42.678;23.244;2023-07-13T04:22:01;94364.63;;;21.08;100.00
9277;BME280;4676;42.678;23.244;2023-07-13T04:24:29;94366.06;;;21.12;100.00
9277;BME280;4676;42.678;23.244;2023-07-13T04:26:56;94371.69;;;21.17;100.00
9277;BME280;4676;42.678;23.244;2023-07-13T04:29:24;94372.16;;;21.22;100.00
9277;BME280;4676;42.678;23.244;2023-07-13T04:31:51;94374.63;;;21.23;100.00
9277;BME280;4676;42.678;23.244;2023-07-13T04:34:18;94373.44;;;21.38;100.00
9277;BME280;4676;42.678;23.244;2023-07-13T04:36:45;94378.84;;;21.35;100.00
9277;BME280;4676;42.678;23.244;2023-07-13T04:39:11;94382.19;;;21.58;100.00
9277;BME280;4676;42.678;23.244;2023-07-13T04:41:39;94390.75;;;21.59;100.00
9277;BME280;4676;42.678;23.244;2023-07-13T04:44:06;94388.75;;;21.62;100.00
9277;BME280;4676;42.678;23.244;2023-07-13T04:46:33;94391.25;;;21.64;100.00
9277;BME280;4676;42.678;23.244;2023-07-13T04:48:59;94392.69;;;21.88;100.00
9277;BME280;4676;42.678;23.244;2023-07-13T04:51:29;94398.59;;;21.90;100.00
9277;BME280;4676;42.678;23.244;2023-07-13T04:53:55;94401.25;;;22.00;100.00
9277;BME280;4676;42.678;23.244;2023-07-13T04:56:22;94399.72;;;22.09;100.00
9277;BME280;4676;42.678;23.244;2023-07-13T04:58:51;94410.00;;;22.20;100.00
9277;BME280;4676;42.678;23.244;2023-07-13T05:01:17;94403.75;;;22.22;100.00
9277;BME280;4676;42.678;23.244;2023-07-13T05:03:45;94411.06;;;22.38;100.00
9277;BME280;4676;42.678;23.244;2023-07-13T05:06:12;94402.44;;;22.28;100.00
9277;BME280;4676;42.678;23.244;2023-07-13T05:08:39;94396.91;;;22.32;100.00
9277;BME280;4676;42.678;23.244;2023-07-13T05:11:06;94405.59;;;22.31;100.00
9277;BME280;4676;42.678;23.244;2023-07-13T05:13:33;94409.47;;;22.37;100.00
9277;BME280;4676;42.678;23.244;2023-07-13T05:16:03;94416.25;;;22.38;100.00
9277;BME280;4676;42.678;23.244;2023-07-13T05:18:31;94401.56;;;22.38;100.00
9277;BME280;4676;42.678;23.244;2023-07-13T05:20:59;94417.31;;;22.67;100.00
9277;BME280;4676;42.678;23.244;2023-07-13T05:23:26;94408.50;;;22.70;100.00
9277;BME280;4676;42.678;23.244;2023-07-13T05:25:53;94411.16;;;22.79;100.00
9277;BME280;4676;42.678;23.244;2023-07-13T05:28:21;94405.59;;;22.84;100.00
9277;BME280;4676;42.678;23.244;2023-07-13T05:30:48;94417.84;;;23.12;100.00
9277;BME280;4676;42.678;23.244;2023-07-13T05:33:17;94417.53;;;23.26;100.00
9277;BME280;4676;42.678;23.244;2023-07-13T05:35:44;94419.59;;;23.53;100.00
9277;BME280;4676;42.678;23.244;2023-07-13T05:38:10;94420.00;;;23.58;100.00
9277;BME280;4676;42.678;23.244;2023-07-13T05:40:37;94428.47;;;23.70;100.00
9277;BME280;4676;42.678;23.244;2023-07-13T05:43:04;94426.34;;;23.84;100.00
9277;BME280;4676;42.678;23.244;2023-07-13T05:45:30;94421.63;;;23.99;100.00
9277;BME280;4676;42.678;23.244;2023-07-13T05:47:57;94427.78;;;24.17;100.00
9277;BME280;4676;42.678;23.244;2023-07-13T05:50:25;94436.53;;;24.35;100.00
9277;BME280;4676;42.678;23.244;2023-07-13T05:52:52;94424.16;;;24.49;100.00
9277;BME280;4676;42.678;23.244;2023-07-13T05:55:19;94421.00;;;24.55;100.00
9277;BME280;4676;42.678;23.244;2023-07-13T05:57:46;94412.66;;;24.70;100.00
9277;BME280;4676;42.678;23.244;2023-07-13T06:00:13;94414.16;;;24.82;100.00
9277;BME280;4676;42.678;23.244;2023-07-13T06:02:40;94414.41;;;24.99;100.00
9277;BME280;4676;42.678;23.244;2023-07-13T06:05:08;94419.44;;;25.10;100.00
9277;BME280;4676;42.678;23.244;2023-07-13T06:07:36;94412.31;;;25.21;100.00
9277;BME280;4676;42.678;23.244;2023-07-13T06:10:03;94419.25;;;25.30;100.00
9277;BME280;4676;42.678;23.244;2023-07-13T06:12:30;94420.84;;;25.41;100.00
9277;BME280;4676;42.678;23.244;2023-07-13T06:14:57;94420.84;;;25.51;100.00
9277;BME280;4676;42.678;23.244;2023-07-13T06:17:24;94425.81;;;25.71;100.00
9277;BME280;4676;42.678;23.244;2023-07-13T06:19:50;94423.16;;;25.81;100.00
9277;BME280;4676;42.678;23.244;2023-07-13T06:22:17;94426.00;;;25.88;99.80
9277;BME280;4676;42.678;23.244;2023-07-13T06:24:45;94437.53;;;26.03;100.00
9277;BME280;4676;42.678;23.244;2023-07-13T06:27:12;94437.66;;;26.01;100.00
9277;BME280;4676;42.678;23.244;2023-07-13T06:29:38;94440.50;;;26.17;100.00
9277;BME280;4676;42.678;23.244;2023-07-13T06:32:06;94435.97;;;26.37;96.24
9277;BME280;4676;42.678;23.244;2023-07-13T06:34:33;94430.84;;;26.45;97.60
9277;BME280;4676;42.678;23.244;2023-07-13T06:37:00;94433.59;;;26.61;92.30
9277;BME280;4676;42.678;23.244;2023-07-13T06:39:27;94433.91;;;26.58;90.75
9277;BME280;4676;42.678;23.244;2023-07-13T06:41:55;94433.50;;;26.71;93.54
9277;BME280;4676;42.678;23.244;2023-07-13T06:44:21;94428.81;;;26.74;87.86
9277;BME280;4676;42.678;23.244;2023-07-13T06:46:48;94428.16;;;26.72;81.29
9277;BME280;4676;42.678;23.244;2023-07-13T06:49:15;94433.66;;;26.69;97.66
9277;BME280;4676;42.678;23.244;2023-07-13T06:51:41;94425.78;;;26.79;96.79
9277;BME280;4676;42.678;23.244;2023-07-13T06:54:08;94428.38;;;26.97;92.52
9277;BME280;4676;42.678;23.244;2023-07-13T06:56:35;94424.97;;;26.96;86.61
9277;BME280;4676;42.678;23.244;2023-07-13T06:59:03;94420.16;;;27.09;88.84
9277;BME280;4676;42.678;23.244;2023-07-13T07:01:29;94424.00;;;27.23;88.71
9277;BME280;4676;42.678;23.244;2023-07-13T07:03:56;94428.09;;;27.25;85.53
9277;BME280;4676;42.678;23.244;2023-07-13T07:06:23;94430.13;;;27.40;89.11
9277;BME280;4676;42.678;23.244;2023-07-13T07:08:50;94426.59;;;27.74;82.29
9277;BME280;4676;42.678;23.244;2023-07-13T07:11:19;94410.00;;;27.75;81.21
9277;BME280;4676;42.678;23.244;2023-07-13T07:13:47;94424.66;;;27.85;82.20
9277;BME280;4676;42.678;23.244;2023-07-13T07:16:16;94427.81;;;27.96;79.97
9277;BME280;4676;42.678;23.244;2023-07-13T07:18:42;94423.06;;;27.92;87.54
9277;BME280;4676;42.678;23.244;2023-07-13T07:21:09;94430.25;;;27.98;81.53
9277;BME280;4676;42.678;23.244;2023-07-13T07:23:36;94425.38;;;28.03;79.90
9277;BME280;4676;42.678;23.244;2023-07-13T07:26:03;94420.22;;;28.11;80.32
9277;BME280;4676;42.678;23.244;2023-07-13T07:28:30;94413.69;;;28.07;91.40
9277;BME280;4676;42.678;23.244;2023-07-13T07:30:58;94406.06;;;28.13;98.94
9277;BME280;4676;42.678;23.244;2023-07-13T07:33:26;94411.97;;;28.48;81.93
9277;BME280;4676;42.678;23.244;2023-07-13T07:35:53;94410.50;;;28.61;82.36
9277;BME280;4676;42.678;23.244;2023-07-13T07:38:19;94407.75;;;28.63;85.94
9277;BME280;4676;42.678;23.244;2023-07-13T07:40:46;94392.94;;;28.71;83.08
9277;BME280;4676;42.678;23.244;2023-07-13T07:43:13;94402.06;;;28.84;84.09
9277;BME280;4676;42.678;23.244;2023-07-13T07:45:40;94401.75;;;28.95;72.34
9277;BME280;4676;42.678;23.244;2023-07-13T07:48:07;94404.03;;;28.90;82.91
9277;BME280;4676;42.678;23.244;2023-07-13T07:50:36;94387.72;;;28.96;84.22
9277;BME280;4676;42.678;23.244;2023-07-13T07:53:04;94400.72;;;29.28;76.67
9277;BME280;4676;42.678;23.244;2023-07-13T07:55:33;94392.31;;;29.57;77.42
9277;BME280;4676;42.678;23.244;2023-07-13T07:58:00;94397.31;;;29.74;66.66
9277;BME280;4676;42.678;23.244;2023-07-13T08:00:28;94391.97;;;29.60;69.70
9277;BME280;4676;42.678;23.244;2023-07-13T08:02:56;94384.13;;;29.68;77.75
9277;BME280;4676;42.678;23.244;2023-07-13T08:05:23;94379.81;;;29.83;72.34
9277;BME280;4676;42.678;23.244;2023-07-13T08:07:51;94374.03;;;30.04;80.94
9277;BME280;4676;42.678;23.244;2023-07-13T08:10:18;94377.38;;;30.12;71.15
9277;BME280;4676;42.678;23.244;2023-07-13T08:12:45;94375.25;;;30.16;70.59
9277;BME280;4676;42.678;23.244;2023-07-13T08:15:14;94361.06;;;30.10;75.99
9277;BME280;4676;42.678;23.244;2023-07-13T08:17:41;94369.56;;;30.35;72.63
9277;BME280;4676;42.678;23.244;2023-07-13T08:20:09;94372.09;;;30.51;69.04
9277;BME280;4676;42.678;23.244;2023-07-13T08:22:36;94370.75;;;30.55;64.92
9277;BME280;4676;42.678;23.244;2023-07-13T08:25:04;94365.09;;;30.66;62.23
9277;BME280;4676;42.678;23.244;2023-07-13T08:27:32;94375.56;;;30.66;64.50
9277;BME280;4676;42.678;23.244;2023-07-13T08:29:58;94376.50;;;30.73;62.96
9277;BME280;4676;42.678;23.244;2023-07-13T08:32:25;94366.63;;;30.61;71.51
9277;BME280;4676;42.678;23.244;2023-07-13T08:34:52;94357.22;;;30.52;67.67
9277;BME280;4676;42.678;23.244;2023-07-13T08:37:19;94354.66;;;30.66;63.33
9277;BME280;4676;42.678;23.244;2023-07-13T08:39:46;94351.09;;;30.82;62.95
9277;BME280;4676;42.678;23.244;2023-07-13T08:42:22;94347.72;;;30.73;60.97
9277;BME280;4676;42.678;23.244;2023-07-13T08:44:58;94359.03;;;30.89;64.12
9277;BME280;4676;42.678;23.244;2023-07-13T08:47:30;94356.13;;;31.06;63.47
9277;BME280;4676;42.678;23.244;2023-07-13T08:50:00;94362.53;;;31.18;60.84
9277;BME280;4676;42.678;23.244;2023-07-13T08:52:31;94352.59;;;31.29;63.94
9277;BME280;4676;42.678;23.244;2023-07-13T08:55:04;94358.66;;;31.44;64.26
9277;BME280;4676;42.678;23.244;2023-07-13T08:57:34;94357.66;;;31.45;59.85
9277;BME280;4676;42.678;23.244;2023-07-13T09:00:01;94365.78;;;31.35;59.90
9277;BME280;4676;42.678;23.244;2023-07-13T09:02:40;94375.53;;;31.27;59.51
9277;BME280;4676;42.678;23.244;2023-07-13T09:05:12;94379.31;;;31.39;57.84
9277;BME280;4676;42.678;23.244;2023-07-13T09:08:02;94392.53;;;31.45;57.05
9277;BME280;4676;42.678;23.244;2023-07-13T09:10:34;94385.63;;;31.52;63.13
9277;BME280;4676;42.678;23.244;2023-07-13T09:13:20;94385.13;;;31.49;65.42
9277;BME280;4676;42.678;23.244;2023-07-13T09:15:50;94364.72;;;31.44;51.64
9277;BME280;4676;42.678;23.244;2023-07-13T09:18:22;94388.41;;;31.80;50.67
9277;BME280;4676;42.678;23.244;2023-07-13T09:20:54;94383.75;;;31.97;54.37
9277;BME280;4676;42.678;23.244;2023-07-13T09:23:23;94391.09;;;32.01;48.21
9277;BME280;4676;42.678;23.244;2023-07-13T09:25:53;94383.47;;;31.92;50.32
9277;BME280;4676;42.678;23.244;2023-07-13T09:28:26;94393.00;;;32.07;47.77
9277;BME280;4676;42.678;23.244;2023-07-13T09:30:56;94392.06;;;32.00;49.15
9277;BME280;4676;42.678;23.244;2023-07-13T09:33:25;94382.03;;;32.04;47.00
9277;BME280;4676;42.678;23.244;2023-07-13T09:35:54;94405.44;;;32.20;42.56
9277;BME280;4676;42.678;23.244;2023-07-13T09:38:24;94397.47;;;32.28;39.35
9277;BME280;4676;42.678;23.244;2023-07-13T09:41:08;94397.59;;;32.41;43.08
9277;BME280;4676;42.678;23.244;2023-07-13T09:46:35;94383.06;;;32.24;43.41
9277;BME280;4676;42.678;23.244;2023-07-13T09:49:02;94390.28;;;32.37;40.53
9277;BME280;4676;42.678;23.244;2023-07-13T09:51:29;94381.66;;;32.43;39.48
9277;BME280;4676;42.678;23.244;2023-07-13T09:53:56;94384.28;;;32.43;41.95
9277;BME280;4676;42.678;23.244;2023-07-13T09:56:27;94376.22;;;32.44;40.95
9277;BME280;4676;42.678;23.244;2023-07-13T09:58:56;94377.28;;;32.50;40.24
9277;BME280;4676;42.678;23.244;2023-07-13T10:01:36;94366.50;;;32.59;40.81
9277;BME280;4676;42.678;23.244;2023-07-13T10:04:11;94364.59;;;32.53;43.49
9277;BME280;4676;42.678;23.244;2023-07-13T10:06:40;94361.69;;;32.63;44.69
9277;BME280;4676;42.678;23.244;2023-07-13T10:09:08;94359.28;;;32.61;40.36
9277;BME280;4676;42.678;23.244;2023-07-13T10:11:36;94360.13;;;32.47;39.70
9277;BME280;4676;42.678;23.244;2023-07-13T10:14:11;94355.75;;;32.54;42.54
9277;BME280;4676;42.678;23.244;2023-07-13T10:16:42;94347.31;;;32.59;40.18
9277;BME280;4676;42.678;23.244;2023-07-13T10:19:13;94354.88;;;32.69;40.11
9277;BME280;4676;42.678;23.244;2023-07-13T10:21:49;94360.94;;;32.69;43.93
9277;BME280;4676;42.678;23.244;2023-07-13T10:24:20;94359.59;;;32.80;42.45
9277;BME280;4676;42.678;23.244;2023-07-13T10:26:50;94355.31;;;32.72;44.35
9277;BME280;4676;42.678;23.244;2023-07-13T10:29:22;94354.78;;;32.83;37.88
9277;BME280;4676;42.678;23.244;2023-07-13T10:31:51;94351.16;;;32.84;40.32
9277;BME280;4676;42.678;23.244;2023-07-13T10:34:18;94344.63;;;32.74;39.92
9277;BME280;4676;42.678;23.244;2023-07-13T10:36:46;94343.09;;;32.86;40.87
9277;BME280;4676;42.678;23.244;2023-07-13T10:39:17;94343.94;;;32.86;43.39
9277;BME280;4676;42.678;23.244;2023-07-13T10:43:23;94343.97;;;32.93;40.15
9277;BME280;4676;42.678;23.244;2023-07-13T10:45:53;94334.50;;;32.98;38.20
9277;BME280;4676;42.678;23.244;2023-07-13T10:48:21;94327.16;;;32.87;42.79
9277;BME280;4676;42.678;23.244;2023-07-13T10:50:50;94331.22;;;32.90;41.05
9277;BME280;4676;42.678;23.244;2023-07-13T10:53:20;94316.84;;;32.86;38.38
9277;BME280;4676;42.678;23.244;2023-07-13T10:56:05;94320.25;;;33.07;37.42
9277;BME280;4676;42.678;23.244;2023-07-13T10:58:36;94313.13;;;33.08;42.44
9277;BME280;4676;42.678;23.244;2023-07-13T11:01:08;94304.34;;;33.15;40.72
9277;BME280;4676;42.678;23.244;2023-07-13T11:03:37;94306.00;;;33.23;41.76
9277;BME280;4676;42.678;23.244;2023-07-13T11:06:08;94302.69;;;33.42;38.94
9277;BME280;4676;42.678;23.244;2023-07-13T11:08:37;94302.69;;;33.49;44.33
9277;BME280;4676;42.678;23.244;2023-07-13T11:11:34;94302.50;;;33.50;41.07
9277;BME280;4676;42.678;23.244;2023-07-13T11:14:02;94292.00;;;33.57;37.53
9277;BME280;4676;42.678;23.244;2023-07-13T11:16:44;94289.78;;;33.60;39.82
9277;BME280;4676;42.678;23.244;2023-07-13T11:19:37;94282.13;;;33.59;40.10
9277;BME280;4676;42.678;23.244;2023-07-13T11:22:22;94283.31;;;33.56;40.98
9277;BME280;4676;42.678;23.244;2023-07-13T11:24:57;94284.53;;;33.60;40.71
9277;BME280;4676;42.678;23.244;2023-07-13T11:27:41;94291.13;;;33.78;40.16
9277;BME280;4676;42.678;23.244;2023-07-13T11:30:23;94285.84;;;33.78;40.15
9277;BME280;4676;42.678;23.244;2023-07-13T11:35:34;94275.72;;;33.75;39.78
9277;BME280;4676;42.678;23.244;2023-07-13T11:38:12;94279.81;;;33.84;41.98
9277;BME280;4676;42.678;23.244;2023-07-13T11:40:41;94276.19;;;33.91;41.96
9277;BME280;4676;42.678;23.244;2023-07-13T11:43:13;94273.72;;;33.77;41.07
9277;BME280;4676;42.678;23.244;2023-07-13T11:45:40;94280.97;;;33.75;40.67
9277;BME280;4676;42.678;23.244;2023-07-13T11:48:18;94279.81;;;33.90;41.43
9277;BME280;4676;42.678;23.244;2023-07-13T11:50:51;94277.22;;;34.03;42.89
9277;BME280;4676;42.678;23.244;2023-07-13T11:53:18;94272.34;;;34.00;41.43
9277;BME280;4676;42.678;23.244;2023-07-13T11:55:45;94264.03;;;33.90;37.05
9277;BME280;4676;42.678;23.244;2023-07-13T11:58:17;94268.50;;;34.03;38.20
9277;BME280;4676;42.678;23.244;2023-07-13T12:00:47;94258.19;;;33.88;38.96
9277;BME280;4676;42.678;23.244;2023-07-13T12:03:20;94264.03;;;33.90;38.71
9277;BME280;4676;42.678;23.244;2023-07-13T12:05:56;94263.88;;;34.11;37.63
9277;BME280;4676;42.678;23.244;2023-07-13T12:08:23;94258.47;;;34.20;38.07
9277;BME280;4676;42.678;23.244;2023-07-13T12:10:58;94255.81;;;34.26;38.03
9277;BME280;4676;42.678;23.244;2023-07-13T12:13:27;94251.75;;;34.24;37.16
9277;BME280;4676;42.678;23.244;2023-07-13T12:15:56;94260.69;;;34.42;35.20
9277;BME280;4676;42.678;23.244;2023-07-13T12:18:28;94251.16;;;34.35;37.83
9277;BME280;4676;42.678;23.244;2023-07-13T12:20:58;94244.47;;;34.39;35.82
9277;BME280;4676;42.678;23.244;2023-07-13T12:23:28;94233.13;;;34.45;35.77
9277;BME280;4676;42.678;23.244;2023-07-13T12:25:56;94230.72;;;34.50;36.43
9277;BME280;4676;42.678;23.244;2023-07-13T12:28:32;94226.06;;;34.45;38.41
9277;BME280;4676;42.678;23.244;2023-07-13T12:30:59;94217.75;;;34.55;41.26
9277;BME280;4676;42.678;23.244;2023-07-13T12:33:28;94222.63;;;34.51;37.68
9277;BME280;4676;42.678;23.244;2023-07-13T12:35:55;94221.38;;;34.60;34.71
9277;BME280;4676;42.678;23.244;2023-07-13T12:38:24;94210.47;;;34.57;37.15
9277;BME280;4676;42.678;23.244;2023-07-13T12:40:52;94211.88;;;34.53;37.03
9277;BME280;4676;42.678;23.244;2023-07-13T12:43:20;94206.41;;;34.61;37.42
9277;BME280;4676;42.678;23.244;2023-07-13T12:45:57;94207.41;;;34.60;36.24
9277;BME280;4676;42.678;23.244;2023-07-13T12:48:24;94204.19;;;34.58;36.90
9277;BME280;4676;42.678;23.244;2023-07-13T12:50:53;94204.38;;;34.63;36.94
9277;BME280;4676;42.678;23.244;2023-07-13T12:53:22;94201.75;;;34.70;38.92
9277;BME280;4676;42.678;23.244;2023-07-13T12:55:52;94206.38;;;34.81;36.97
9277;BME280;4676;42.678;23.244;2023-07-13T12:58:24;94199.53;;;34.80;37.74
9277;BME280;4676;42.678;23.244;2023-07-13T13:00:56;94197.25;;;34.96;36.19
9277;BME280;4676;42.678;23.244;2023-07-13T13:03:26;94196.44;;;34.96;37.44
9277;BME280;4676;42.678;23.244;2023-07-13T13:05:58;94194.63;;;34.90;36.78
9277;BME280;4676;42.678;23.244;2023-07-13T13:08:29;94190.16;;;34.97;37.22
9277;BME280;4676;42.678;23.244;2023-07-13T13:10:55;94179.63;;;34.97;36.77
9277;BME280;4676;42.678;23.244;2023-07-13T13:13:23;94186.69;;;35.03;36.67
9277;BME280;4676;42.678;23.244;2023-07-13T13:15:51;94183.22;;;35.02;36.64
9277;BME280;4676;42.678;23.244;2023-07-13T13:18:21;94185.44;;;35.05;33.10
9277;BME280;4676;42.678;23.244;2023-07-13T13:20:49;94174.09;;;35.05;37.03
9277;BME280;4676;42.678;23.244;2023-07-13T13:23:17;94186.59;;;35.29;33.82